sensor_id;sensor_type;location;lat;lon;timestamp;pressure;altitude;pressure_sealevel;temperature;humidity
64675;BME280;51090;51.512;11.332;2023-07-31T00:00:23;99114.53;;;19.21;nan
64675;BME280;51090;51.512;11.332;2023-07-31T00:02:51;99110.72;;;19.17;nan
64675;BME280;51090;51.512;11.332;2023-07-31T00:05:18;99107.97;;;19.11;nan
64675;BME280;51090;51.512;11.332;2023-07-31T00:07:45;99105.22;;;19.06;nan
64675;BME280;51090;51.512;11.332;2023-07-31T00:10:12;99094.31;;;18.96;nan
64675;BME280;51090;51.512;11.332;2023-07-31T00:12:44;99102.75;;;19.05;nan
64675;BME280;51090;51.512;11.332;2023-07-31T00:15:13;99099.44;;;18.98;nan
64675;BME280;51090;51.512;11.332;2023-07-31T00:17:40;99110.03;;;19.04;nan
64675;BME280;51090;51.512;11.332;2023-07-31T00:20:08;99111.91;;;19.04;nan
64675;BME280;51090;51.512;11.332;2023-07-31T00:22:35;99110.03;;;19.04;nan
64675;BME280;51090;51.512;11.332;2023-07-31T00:25:02;99119.69;;;19.05;nan
64675;BME280;51090;51.512;11.332;2023-07-31T00:27:30;99110.31;;;19.08;nan
64675;BME280;51090;51.512;11.332;2023-07-31T00:29:56;99109.59;;;19.12;nan
64675;BME280;51090;51.512;11.332;2023-07-31T00:32:23;99100.72;;;19.12;nan
64675;BME280;51090;51.512;11.332;2023-07-31T00:34:50;99111.34;;;19.24;nan
64675;BME280;51090;51.512;11.332;2023-07-31T00:37:17;99108.09;;;19.22;nan
64675;BME280;51090;51.512;11.332;2023-07-31T00:39:45;99110.53;;;19.23;nan
64675;BME280;51090;51.512;11.332;2023-07-31T00:42:12;99109.78;;;19.28;nan
64675;BME280;51090;51.512;11.332;2023-07-31T00:44:39;99110.34;;;19.30;nan
64675;BME280;51090;51.512;11.332;2023-07-31T00:47:07;99114.09;;;19.29;nan
64675;BME280;51090;51.512;11.332;2023-07-31T00:49:37;99117.03;;;19.27;nan
64675;BME280;51090;51.512;11.332;2023-07-31T00:52:04;99109.47;;;19.24;nan
64675;BME280;51090;51.512;11.332;2023-07-31T00:54:31;99112.91;;;19.20;nan
64675;BME280;51090;51.512;11.332;2023-07-31T00:57:01;99115.91;;;19.23;nan
64675;BME280;51090;51.512;11.332;2023-07-31T00:59:29;99108.56;;;19.19;nan
64675;BME280;51090;51.512;11.332;2023-07-31T01:01:56;99095.91;;;19.14;nan
64675;BME280;51090;51.512;11.332;2023-07-31T01:04:23;99088.59;;;19.09;nan
64675;BME280;51090;51.512;11.332;2023-07-31T01:12:12;99087.44;;;19.05;nan
64675;BME280;51090;51.512;11.332;2023-07-31T01:14:40;99093.97;;;19.09;nan
64675;BME280;51090;51.512;11.332;2023-07-31T01:17:07;99083.66;;;19.01;nan
64675;BME280;51090;51.512;11.332;2023-07-31T01:19:34;99080.31;;;18.94;nan
64675;BME280;51090;51.512;11.332;2023-07-31T01:28:13;99082.50;;;18.97;nan
64675;BME280;51090;51.512;11.332;2023-07-31T01:30:48;99079.19;;;18.90;nan
64675;BME280;51090;51.512;11.332;2023-07-31T01:33:16;99073.75;;;18.85;nan
64675;BME280;51090;51.512;11.332;2023-07-31T01:35:45;99064.50;;;18.76;nan
64675;BME280;51090;51.512;11.332;2023-07-31T01:38:13;99067.88;;;18.71;nan
64675;BME280;51090;51.512;11.332;2023-07-31T01:40:42;99054.88;;;18.63;nan
64675;BME280;51090;51.512;11.332;2023-07-31T01:43:09;99054.31;;;18.61;nan
64675;BME280;51090;51.512;11.332;2023-07-31T01:45:35;99049.44;;;18.58;nan
64675;BME280;51090;51.512;11.332;2023-07-31T01:48:02;99029.66;;;18.47;nan
64675;BME280;51090;51.512;11.332;2023-07-31T01:50:30;99047.06;;;18.61;nan
64675;BME280;51090;51.512;11.332;2023-07-31T01:52:59;99051.13;;;18.64;nan
64675;BME280;51090;51.512;11.332;2023-07-31T01:55:26;99044.38;;;18.61;nan
64675;BME280;51090;51.512;11.332;2023-07-31T01:57:53;99044.44;;;18.66;nan
64675;BME280;51090;51.512;11.332;2023-07-31T02:00:21;99035.66;;;18.71;nan
64675;BME280;51090;51.512;11.332;2023-07-31T02:02:47;99024.41;;;18.74;nan
64675;BME280;51090;51.512;11.332;2023-07-31T02:05:15;99035.56;;;18.83;nan
64675;BME280;51090;51.512;11.332;2023-07-31T02:07:42;99032.41;;;18.86;nan
64675;BME280;51090;51.512;11.332;2023-07-31T02:10:09;99029.13;;;18.84;nan
64675;BME280;51090;51.512;11.332;2023-07-31T02:12:36;99039.38;;;18.87;nan
64675;BME280;51090;51.512;11.332;2023-07-31T02:15:03;99038.66;;;18.91;nan
64675;BME280;51090;51.512;11.332;2023-07-31T02:17:31;99032.47;;;18.91;nan
64675;BME280;51090;51.512;11.332;2023-07-31T02:19:57;99018.63;;;18.82;nan
64675;BME280;51090;51.512;11.332;2023-07-31T02:22:23;99014.41;;;18.86;nan
64675;BME280;51090;51.512;11.332;2023-07-31T02:24:50;99016.59;;;18.89;nan
64675;BME280;51090;51.512;11.332;2023-07-31T02:27:17;99015.50;;;18.90;nan
64675;BME280;51090;51.512;11.332;2023-07-31T02:29:43;98989.59;;;18.79;nan
64675;BME280;51090;51.512;11.332;2023-07-31T02:32:13;99008.81;;;18.93;nan
64675;BME280;51090;51.512;11.332;2023-07-31T02:34:42;99001.84;;;18.92;nan
64675;BME280;51090;51.512;11.332;2023-07-31T02:37:08;99004.03;;;18.95;nan
64675;BME280;51090;51.512;11.332;2023-07-31T02:39:34;98999.22;;;18.97;nan
64675;BME280;51090;51.512;11.332;2023-07-31T02:42:01;98983.78;;;18.87;nan
64675;BME280;51090;51.512;11.332;2023-07-31T02:44:31;98999.22;;;18.97;nan
64675;BME280;51090;51.512;11.332;2023-07-31T02:47:00;98998.13;;;18.98;nan
64675;BME280;51090;51.512;11.332;2023-07-31T02:49:33;98990.91;;;18.99;nan
64675;BME280;51090;51.512;11.332;2023-07-31T02:52:01;98982.53;;;18.95;nan
64675;BME280;51090;51.512;11.332;2023-07-31T02:54:28;98980.66;;;18.96;nan
64675;BME280;51090;51.512;11.332;2023-07-31T02:56:54;98987.66;;;18.97;nan
64675;BME280;51090;51.512;11.332;2023-07-31T02:59:20;98990.06;;;18.98;nan
64675;BME280;51090;51.512;11.332;2023-07-31T03:01:47;98981.47;;;18.96;nan
64675;BME280;51090;51.512;11.332;2023-07-31T03:04:14;98975.84;;;18.98;nan
64675;BME280;51090;51.512;11.332;2023-07-31T03:06:41;98980.72;;;19.01;nan
64675;BME280;51090;51.512;11.332;2023-07-31T03:09:08;98972.16;;;19.04;nan
64675;BME280;51090;51.512;11.332;2023-07-31T03:11:35;98978.59;;;19.03;nan
64675;BME280;51090;51.512;11.332;2023-07-31T03:14:05;98970.53;;;19.03;nan
64675;BME280;51090;51.512;11.332;2023-07-31T03:16:31;98978.59;;;19.03;nan
64675;BME280;51090;51.512;11.332;2023-07-31T03:19:02;98977.53;;;19.04;nan
64675;BME280;51090;51.512;11.332;2023-07-31T03:21:32;98967.59;;;19.04;nan
64675;BME280;51090;51.512;11.332;2023-07-31T03:23:59;98959.78;;;19.03;nan
64675;BME280;51090;51.512;11.332;2023-07-31T03:26:26;98958.97;;;19.02;nan
64675;BME280;51090;51.512;11.332;2023-07-31T03:28:53;98945.19;;;18.93;nan
64675;BME280;51090;51.512;11.332;2023-07-31T03:31:20;98956.78;;;18.99;nan
64675;BME280;51090;51.512;11.332;2023-07-31T03:33:47;98952.97;;;18.95;nan
64675;BME280;51090;51.512;11.332;2023-07-31T03:36:14;98959.72;;;18.98;nan
64675;BME280;51090;51.512;11.332;2023-07-31T03:38:41;98949.78;;;18.98;nan
64675;BME280;51090;51.512;11.332;2023-07-31T03:41:08;98952.22;;;19.00;nan
64675;BME280;51090;51.512;11.332;2023-07-31T03:43:36;98954.91;;;19.00;nan
64675;BME280;51090;51.512;11.332;2023-07-31T03:46:03;98956.53;;;19.01;nan
64675;BME280;51090;51.512;11.332;2023-07-31T03:48:30;98952.78;;;19.02;nan
64675;BME280;51090;51.512;11.332;2023-07-31T03:50:57;98954.66;;;19.01;nan
64675;BME280;51090;51.512;11.332;2023-07-31T03:53:23;98948.16;;;18.97;nan
64675;BME280;51090;51.512;11.332;2023-07-31T03:55:49;98957.91;;;19.03;nan
64675;BME280;51090;51.512;11.332;2023-07-31T03:58:16;98953.09;;;19.05;nan
64675;BME280;51090;51.512;11.332;2023-07-31T04:00:47;98954.97;;;19.05;nan
64675;BME280;51090;51.512;11.332;2023-07-31T04:03:17;98960.34;;;19.05;nan
64675;BME280;51090;51.512;11.332;2023-07-31T04:05:43;98953.34;;;19.04;nan
64675;BME280;51090;51.512;11.332;2023-07-31T04:08:09;98959.84;;;19.08;nan
64675;BME280;51090;51.512;11.332;2023-07-31T04:10:36;98944.97;;;19.00;nan
64675;BME280;51090;51.512;11.332;2023-07-31T04:13:03;98946.34;;;19.03;nan
64675;BME280;51090;51.512;11.332;2023-07-31T04:15:30;98948.22;;;19.02;nan
64675;BME280;51090;51.512;11.332;2023-07-31T04:17:57;98947.94;;;18.99;nan
64675;BME280;51090;51.512;11.332;2023-07-31T04:20:24;98945.19;;;18.93;nan
64675;BME280;51090;51.512;11.332;2023-07-31T04:22:51;98936.84;;;18.95;nan
64675;BME280;51090;51.512;11.332;2023-07-31T04:25:17;98940.09;;;18.97;nan
64675;BME280;51090;51.512;11.332;2023-07-31T04:27:44;98944.22;;;19.05;nan
64675;BME280;51090;51.512;11.332;2023-07-31T04:30:10;98945.59;;;19.07;nan
64675;BME280;51090;51.512;11.332;2023-07-31T04:32:41;98928.97;;;19.10;nan
64675;BME280;51090;51.512;11.332;2023-07-31T04:35:11;98939.53;;;19.17;nan
64675;BME280;51090;51.512;11.332;2023-07-31T04:37:38;98923.00;;;19.08;nan
64675;BME280;51090;51.512;11.332;2023-07-31T04:40:09;98939.75;;;19.15;nan
64675;BME280;51090;51.512;11.332;2023-07-31T04:42:36;98929.75;;;19.11;nan
64675;BME280;51090;51.512;11.332;2023-07-31T04:45:03;98940.31;;;19.18;nan
64675;BME280;51090;51.512;11.332;2023-07-31T04:47:30;98943.63;;;19.25;nan
64675;BME280;51090;51.512;11.332;2023-07-31T04:49:57;98939.91;;;19.31;nan
64675;BME280;51090;51.512;11.332;2023-07-31T04:52:24;98941.78;;;19.30;nan
64675;BME280;51090;51.512;11.332;2023-07-31T04:54:51;98932.41;;;19.33;nan
64675;BME280;51090;51.512;11.332;2023-07-31T04:57:18;98937.28;;;19.36;nan
64675;BME280;51090;51.512;11.332;2023-07-31T04:59:45;98935.72;;;19.40;nan
64675;BME280;51090;51.512;11.332;2023-07-31T05:02:13;98933.31;;;19.44;nan
64675;BME280;51090;51.512;11.332;2023-07-31T05:04:40;98930.38;;;19.45;nan
64675;BME280;51090;51.512;11.332;2023-07-31T05:07:07;98917.13;;;19.39;nan
64675;BME280;51090;51.512;11.332;2023-07-31T05:09:34;98923.41;;;19.49;nan
64675;BME280;51090;51.512;11.332;2023-07-31T05:12:01;98929.34;;;19.51;nan
64675;BME280;51090;51.512;11.332;2023-07-31T05:14:28;98918.59;;;19.51;nan
64675;BME280;51090;51.512;11.332;2023-07-31T05:16:55;98924.28;;;19.55;nan
64675;BME280;51090;51.512;11.332;2023-07-31T05:19:22;98927.25;;;19.58;nan
64675;BME280;51090;51.512;11.332;2023-07-31T05:21:51;98935.13;;;19.65;nan
64675;BME280;51090;51.512;11.332;2023-07-31T05:24:18;98933.38;;;19.76;nan
64675;BME280;51090;51.512;11.332;2023-07-31T05:26:45;98926.06;;;19.71;nan
64675;BME280;51090;51.512;11.332;2023-07-31T05:29:12;98929.56;;;19.72;nan
64675;BME280;51090;51.512;11.332;2023-07-31T05:31:38;98932.00;;;19.73;nan
64675;BME280;51090;51.512;11.332;2023-07-31T05:34:05;98924.72;;;19.74;nan
64675;BME280;51090;51.512;11.332;2023-07-31T05:36:33;98914.94;;;19.63;nan
64675;BME280;51090;51.512;11.332;2023-07-31T05:39:03;98927.50;;;19.57;nan
64675;BME280;51090;51.512;11.332;2023-07-31T05:41:34;98925.09;;;19.55;nan
64675;BME280;51090;51.512;11.332;2023-07-31T05:44:02;98921.03;;;19.53;nan
64675;BME280;51090;51.512;11.332;2023-07-31T05:46:29;98923.44;;;19.54;nan
64675;BME280;51090;51.512;11.332;2023-07-31T05:48:57;98923.25;;;19.61;nan
64675;BME280;51090;51.512;11.332;2023-07-31T05:51:27;98934.94;;;19.72;nan
64675;BME280;51090;51.512;11.332;2023-07-31T05:53:54;98932.03;;;19.78;nan
64675;BME280;51090;51.512;11.332;2023-07-31T05:56:21;98935.00;;;19.82;nan
64675;BME280;51090;51.512;11.332;2023-07-31T05:58:47;98916.69;;;19.79;nan
64675;BME280;51090;51.512;11.332;2023-07-31T06:01:17;98924.22;;;19.77;nan
64675;BME280;51090;51.512;11.332;2023-07-31T06:03:43;98924.47;;;19.75;nan
64675;BME280;51090;51.512;11.332;2023-07-31T06:06:12;98910.44;;;19.68;nan
64675;BME280;51090;51.512;11.332;2023-07-31T06:08:40;98938.34;;;19.94;nan
64675;BME280;51090;51.512;11.332;2023-07-31T06:11:08;98932.44;;;19.97;nan
64675;BME280;51090;51.512;11.332;2023-07-31T06:13:35;98928.41;;;20.00;nan
64675;BME280;51090;51.512;11.332;2023-07-31T06:16:03;98926.56;;;20.06;nan
64675;BME280;51090;51.512;11.332;2023-07-31T06:18:32;98929.84;;;20.13;nan
64675;BME280;51090;51.512;11.332;2023-07-31T06:20:59;98919.09;;;20.18;nan
64675;BME280;51090;51.512;11.332;2023-07-31T06:23:26;98922.06;;;20.21;nan
64675;BME280;51090;51.512;11.332;2023-07-31T06:25:52;98917.78;;;20.20;nan
64675;BME280;51090;51.512;11.332;2023-07-31T06:28:19;98925.63;;;20.27;nan
64675;BME280;51090;51.512;11.332;2023-07-31T06:30:48;98915.69;;;20.33;nan
64675;BME280;51090;51.512;11.332;2023-07-31T06:33:14;98931.13;;;20.48;nan
64675;BME280;51090;51.512;11.332;2023-07-31T06:35:41;98929.66;;;20.77;nan
64675;BME280;51090;51.512;11.332;2023-07-31T06:38:09;98934.34;;;21.07;nan
64675;BME280;51090;51.512;11.332;2023-07-31T06:40:35;98944.34;;;21.22;nan
64675;BME280;51090;51.512;11.332;2023-07-31T06:43:02;98933.81;;;21.21;nan
64675;BME280;51090;51.512;11.332;2023-07-31T06:45:37;98928.16;;;21.17;nan
64675;BME280;51090;51.512;11.332;2023-07-31T06:48:04;98930.31;;;21.15;nan
64675;BME280;51090;51.512;11.332;2023-07-31T06:50:38;98944.38;;;21.33;nan
64675;BME280;51090;51.512;11.332;2023-07-31T06:53:04;98923.63;;;21.38;nan
64675;BME280;51090;51.512;11.332;2023-07-31T06:55:31;98930.88;;;21.27;nan
64675;BME280;51090;51.512;11.332;2023-07-31T06:57:58;98934.06;;;21.14;nan
64675;BME280;51090;51.512;11.332;2023-07-31T07:00:25;98920.81;;;20.92;nan
64675;BME280;51090;51.512;11.332;2023-07-31T07:02:55;98928.63;;;20.83;nan
64675;BME280;51090;51.512;11.332;2023-07-31T07:05:25;98938.31;;;20.90;nan
64675;BME280;51090;51.512;11.332;2023-07-31T07:07:52;98930.53;;;20.98;nan
64675;BME280;51090;51.512;11.332;2023-07-31T07:10:19;98936.75;;;21.09;nan
64675;BME280;51090;51.512;11.332;2023-07-31T07:12:46;98929.22;;;21.16;nan
64675;BME280;51090;51.512;11.332;2023-07-31T07:15:12;98940.03;;;21.26;nan
64675;BME280;51090;51.512;11.332;2023-07-31T07:17:38;98937.63;;;21.35;nan
64675;BME280;51090;51.512;11.332;2023-07-31T07:20:06;98936.06;;;21.65;nan
64675;BME280;51090;51.512;11.332;2023-07-31T07:22:34;98949.28;;;21.87;nan
64675;BME280;51090;51.512;11.332;2023-07-31T07:25:03;98933.34;;;21.85;nan
64675;BME280;51090;51.512;11.332;2023-07-31T07:27:29;98926.59;;;21.78;nan
64675;BME280;51090;51.512;11.332;2023-07-31T07:29:55;98940.38;;;21.86;nan
64675;BME280;51090;51.512;11.332;2023-07-31T07:32:23;98938.50;;;21.87;nan
64675;BME280;51090;51.512;11.332;2023-07-31T07:34:50;98933.09;;;21.71;nan
64675;BME280;51090;51.512;11.332;2023-07-31T07:37:17;98930.94;;;21.58;nan
64675;BME280;51090;51.512;11.332;2023-07-31T07:39:44;98931.22;;;21.72;nan
64675;BME280;51090;51.512;11.332;2023-07-31T07:42:11;98930.38;;;21.92;nan
64675;BME280;51090;51.512;11.332;2023-07-31T07:44:37;98922.28;;;21.92;nan
64675;BME280;51090;51.512;11.332;2023-07-31T07:47:08;98929.81;;;22.05;nan
64675;BME280;51090;51.512;11.332;2023-07-31T07:49:35;98926.03;;;22.01;nan
64675;BME280;51090;51.512;11.332;2023-07-31T07:52:02;98919.59;;;21.97;nan
64675;BME280;51090;51.512;11.332;2023-07-31T07:54:31;98927.69;;;21.92;nan
64675;BME280;51090;51.512;11.332;2023-07-31T07:56:58;98920.66;;;21.86;nan
64675;BME280;51090;51.512;11.332;2023-07-31T07:59:29;98922.84;;;21.79;nan
64675;BME280;51090;51.512;11.332;2023-07-31T08:01:56;98901.25;;;21.58;nan
64675;BME280;51090;51.512;11.332;2023-07-31T08:04:27;98915.28;;;21.65;nan
64675;BME280;51090;51.512;11.332;2023-07-31T08:06:54;98923.91;;;21.67;nan
64675;BME280;51090;51.512;11.332;2023-07-31T08:09:21;98917.72;;;21.67;nan
64675;BME280;51090;51.512;11.332;2023-07-31T08:11:47;98918.50;;;21.57;nan
64675;BME280;51090;51.512;11.332;2023-07-31T08:14:15;98932.81;;;21.58;nan
64675;BME280;51090;51.512;11.332;2023-07-31T08:16:42;98916.63;;;21.63;nan
64675;BME280;51090;51.512;11.332;2023-07-31T08:19:09;98920.94;;;21.53;nan
64675;BME280;51090;51.512;11.332;2023-07-31T08:21:36;98923.66;;;21.48;nan
64675;BME280;51090;51.512;11.332;2023-07-31T08:24:06;98934.69;;;21.52;nan
64675;BME280;51090;51.512;11.332;2023-07-31T08:26:34;98930.94;;;21.58;nan
64675;BME280;51090;51.512;11.332;2023-07-31T08:29:04;98931.19;;;21.62;nan
64675;BME280;51090;51.512;11.332;2023-07-31T08:31:30;98933.91;;;21.62;nan
64675;BME280;51090;51.512;11.332;2023-07-31T08:33:57;98928.75;;;21.55;nan
64675;BME280;51090;51.512;11.332;2023-07-31T08:36:24;98922.00;;;21.42;nan
64675;BME280;51090;51.512;11.332;2023-07-31T08:38:54;98942.53;;;21.59;nan
64675;BME280;51090;51.512;11.332;2023-07-31T08:41:21;98947.66;;;21.70;nan
64675;BME280;51090;51.512;11.332;2023-07-31T08:43:49;98960.63;;;21.79;nan
64675;BME280;51090;51.512;11.332;2023-07-31T08:46:19;98965.75;;;21.85;nan
64675;BME280;51090;51.512;11.332;2023-07-31T08:48:49;98950.09;;;21.62;nan
64675;BME280;51090;51.512;11.332;2023-07-31T08:51:20;98948.75;;;21.59;nan
64675;BME280;51090;51.512;11.332;2023-07-31T08:53:46;98950.34;;;21.86;nan
64675;BME280;51090;51.512;11.332;2023-07-31T08:56:14;98945.47;;;22.24;nan
64675;BME280;51090;51.512;11.332;2023-07-31T08:58:44;98949.75;;;22.45;nan
64675;BME280;51090;51.512;11.332;2023-07-31T09:01:12;98952.91;;;22.68;nan
64675;BME280;51090;51.512;11.332;2023-07-31T09:03:41;98943.91;;;22.88;nan
64675;BME280;51090;51.512;11.332;2023-07-31T09:06:08;98936.06;;;22.86;nan
64675;BME280;51090;51.512;11.332;2023-07-31T09:08:38;98943.69;;;22.84;nan
64675;BME280;51090;51.512;11.332;2023-07-31T09:11:06;98938.50;;;22.93;nan
64675;BME280;51090;51.512;11.332;2023-07-31T09:13:32;98942.78;;;23.04;nan
64675;BME280;51090;51.512;11.332;2023-07-31T09:16:00;98942.72;;;23.14;nan
64675;BME280;51090;51.512;11.332;2023-07-31T09:18:27;98935.34;;;23.30;nan
64675;BME280;51090;51.512;11.332;2023-07-31T09:21:05;98928.81;;;23.36;nan
64675;BME280;51090;51.512;11.332;2023-07-31T09:23:46;98928.75;;;23.41;nan
64675;BME280;51090;51.512;11.332;2023-07-31T09:26:37;98926.25;;;23.50;nan
64675;BME280;51090;51.512;11.332;2023-07-31T09:29:18;98918.31;;;23.64;nan
64675;BME280;51090;51.512;11.332;2023-07-31T09:31:45;98915.31;;;23.65;nan
64675;BME280;51090;51.512;11.332;2023-07-31T09:34:13;98910.81;;;23.56;nan
64675;BME280;51090;51.512;11.332;2023-07-31T09:36:50;98920.97;;;23.69;nan
64675;BME280;51090;51.512;11.332;2023-07-31T09:39:18;98910.03;;;23.84;nan
64675;BME280;51090;51.512;11.332;2023-07-31T09:41:54;98916.50;;;24.18;nan
64675;BME280;51090;51.512;11.332;2023-07-31T09:44:21;98930.09;;;24.37;nan
64675;BME280;51090;51.512;11.332;2023-07-31T09:46:49;98923.13;;;24.30;nan
64675;BME280;51090;51.512;11.332;2023-07-31T09:49:16;98904.22;;;24.25;nan
64675;BME280;51090;51.512;11.332;2023-07-31T09:51:43;98894.81;;;24.42;nan
64675;BME280;51090;51.512;11.332;2023-07-31T09:54:35;98892.81;;;24.52;nan
64675;BME280;51090;51.512;11.332;2023-07-31T09:57:06;98898.63;;;24.84;nan
64675;BME280;51090;51.512;11.332;2023-07-31T09:59:34;98885.13;;;25.22;nan
64675;BME280;51090;51.512;11.332;2023-07-31T10:02:02;98906.47;;;25.61;nan
64675;BME280;51090;51.512;11.332;2023-07-31T10:04:30;98887.72;;;25.78;nan
64675;BME280;51090;51.512;11.332;2023-07-31T10:06:57;98885.72;;;25.84;nan
64675;BME280;51090;51.512;11.332;2023-07-31T10:09:32;98876.56;;;25.80;nan
64675;BME280;51090;51.512;11.332;2023-07-31T10:12:02;98874.97;;;25.46;nan
64675;BME280;51090;51.512;11.332;2023-07-31T10:14:31;98869.75;;;25.12;nan
64675;BME280;51090;51.512;11.332;2023-07-31T10:16:59;98868.09;;;24.78;nan
64675;BME280;51090;51.512;11.332;2023-07-31T10:19:28;98872.16;;;24.57;nan
64675;BME280;51090;51.512;11.332;2023-07-31T10:21:57;98865.19;;;24.26;nan
64675;BME280;51090;51.512;11.332;2023-07-31T10:24:25;98873.38;;;23.97;nan
64675;BME280;51090;51.512;11.332;2023-07-31T10:26:54;98861.72;;;23.97;nan
64675;BME280;51090;51.512;11.332;2023-07-31T10:29:25;98853.94;;;23.90;nan
64675;BME280;51090;51.512;11.332;2023-07-31T10:31:53;98862.13;;;23.85;nan
64675;BME280;51090;51.512;11.332;2023-07-31T10:34:22;98851.50;;;23.59;nan
64675;BME280;51090;51.512;11.332;2023-07-31T10:37:00;98840.63;;;23.35;nan
64675;BME280;51090;51.512;11.332;2023-07-31T10:39:38;98837.53;;;23.13;nan
64675;BME280;51090;51.512;11.332;2023-07-31T10:42:14;98844.84;;;23.12;nan
64675;BME280;51090;51.512;11.332;2023-07-31T10:44:48;98847.72;;;23.26;nan
64675;BME280;51090;51.512;11.332;2023-07-31T10:47:21;98829.81;;;23.35;nan
64675;BME280;51090;51.512;11.332;2023-07-31T10:49:49;98827.06;;;23.40;nan
64675;BME280;51090;51.512;11.332;2023-07-31T10:52:21;98825.63;;;23.48;nan
64675;BME280;51090;51.512;11.332;2023-07-31T10:57:50;98813.00;;;23.38;nan
64675;BME280;51090;51.512;11.332;2023-07-31T11:00:29;98808.34;;;23.44;nan
64675;BME280;51090;51.512;11.332;2023-07-31T11:11:11;98800.84;;;23.89;nan
64675;BME280;51090;51.512;11.332;2023-07-31T11:16:14;98804.22;;;24.05;nan
64675;BME280;51090;51.512;11.332;2023-07-31T11:18:43;98794.53;;;24.23;nan
64675;BME280;51090;51.512;11.332;2023-07-31T11:21:22;98812.38;;;24.48;nan
64675;BME280;51090;51.512;11.332;2023-07-31T11:23:52;98805.06;;;24.86;nan
64675;BME280;51090;51.512;11.332;2023-07-31T11:26:20;98802.41;;;25.19;nan
64675;BME280;51090;51.512;11.332;2023-07-31T11:28:51;98808.63;;;25.19;nan
64675;BME280;51090;51.512;11.332;2023-07-31T11:31:18;98808.94;;;25.18;nan
64675;BME280;51090;51.512;11.332;2023-07-31T11:33:45;98811.81;;;25.40;nan
64675;BME280;51090;51.512;11.332;2023-07-31T11:36:20;98808.59;;;25.38;nan
64675;BME280;51090;51.512;11.332;2023-07-31T11:38:48;98816.56;;;25.49;nan
64675;BME280;51090;51.512;11.332;2023-07-31T11:41:16;98829.97;;;25.59;nan
64675;BME280;51090;51.512;11.332;2023-07-31T11:43:43;98810.03;;;25.50;nan
64675;BME280;51090;51.512;11.332;2023-07-31T11:46:11;98795.41;;;25.32;nan
64675;BME280;51090;51.512;11.332;2023-07-31T11:48:39;98804.75;;;25.26;nan
64675;BME280;51090;51.512;11.332;2023-07-31T11:51:10;98792.66;;;25.18;nan
64675;BME280;51090;51.512;11.332;2023-07-31T11:53:45;98810.16;;;25.72;nan
64675;BME280;51090;51.512;11.332;2023-07-31T11:56:18;98829.53;;;26.26;nan
64675;BME280;51090;51.512;11.332;2023-07-31T11:58:52;98837.56;;;26.59;nan
64675;BME280;51090;51.512;11.332;2023-07-31T12:01:21;98818.41;;;26.50;nan
64675;BME280;51090;51.512;11.332;2023-07-31T12:03:50;98819.94;;;26.42;nan
64675;BME280;51090;51.512;11.332;2023-07-31T12:06:17;98778.69;;;26.26;nan
64675;BME280;51090;51.512;11.332;2023-07-31T12:08:44;98799.25;;;26.05;nan
64675;BME280;51090;51.512;11.332;2023-07-31T12:11:11;98810.31;;;25.95;nan
64675;BME280;51090;51.512;11.332;2023-07-31T12:13:39;98811.59;;;25.83;nan
64675;BME280;51090;51.512;11.332;2023-07-31T12:16:06;98816.56;;;25.95;nan
64675;BME280;51090;51.512;11.332;2023-07-31T12:18:37;98807.69;;;26.17;nan
64675;BME280;51090;51.512;11.332;2023-07-31T12:21:10;98774.69;;;25.96;nan
64675;BME280;51090;51.512;11.332;2023-07-31T12:23:39;98782.13;;;26.04;nan
64675;BME280;51090;51.512;11.332;2023-07-31T12:26:15;98774.81;;;26.05;nan
64675;BME280;51090;51.512;11.332;2023-07-31T12:28:50;98776.00;;;26.13;nan
64675;BME280;51090;51.512;11.332;2023-07-31T12:31:20;98738.28;;;25.97;nan
64675;BME280;51090;51.512;11.332;2023-07-31T12:33:49;98777.78;;;26.31;nan
64675;BME280;51090;51.512;11.332;2023-07-31T12:36:22;98773.84;;;26.37;nan
64675;BME280;51090;51.512;11.332;2023-07-31T12:38:54;98762.16;;;26.37;nan
64675;BME280;51090;51.512;11.332;2023-07-31T12:41:23;98771.81;;;26.57;nan
64675;BME280;51090;51.512;11.332;2023-07-31T12:43:53;98761.06;;;26.74;nan
64675;BME280;51090;51.512;11.332;2023-07-31T12:46:23;98759.97;;;26.75;nan
64675;BME280;51090;51.512;11.332;2023-07-31T12:48:50;98757.75;;;26.27;nan
64675;BME280;51090;51.512;11.332;2023-07-31T12:51:17;98750.34;;;26.05;nan
64675;BME280;51090;51.512;11.332;2023-07-31T12:53:44;98771.38;;;25.85;nan
64675;BME280;51090;51.512;11.332;2023-07-31T12:56:11;98756.13;;;25.43;nan
64675;BME280;51090;51.512;11.332;2023-07-31T12:58:38;98761.81;;;25.28;nan
64675;BME280;51090;51.512;11.332;2023-07-31T13:01:05;98749.78;;;25.01;nan
64675;BME280;51090;51.512;11.332;2023-07-31T13:03:35;98761.09;;;24.70;nan
64675;BME280;51090;51.512;11.332;2023-07-31T13:06:03;98727.88;;;24.46;nan
64675;BME280;51090;51.512;11.332;2023-07-31T13:08:30;98728.41;;;24.43;nan
64675;BME280;51090;51.512;11.332;2023-07-31T13:10:56;98756.84;;;24.83;nan
64675;BME280;51090;51.512;11.332;2023-07-31T13:13:23;98765.91;;;25.58;nan
64675;BME280;51090;51.512;11.332;2023-07-31T13:15:50;98765.53;;;26.06;nan
64675;BME280;51090;51.512;11.332;2023-07-31T13:18:17;98772.19;;;26.00;nan
64675;BME280;51090;51.512;11.332;2023-07-31T13:20:44;98745.28;;;25.71;nan
64675;BME280;51090;51.512;11.332;2023-07-31T13:23:14;98715.22;;;25.26;nan
64675;BME280;51090;51.512;11.332;2023-07-31T13:25:42;98733.41;;;25.06;nan
64675;BME280;51090;51.512;11.332;2023-07-31T13:28:09;98735.69;;;24.99;nan
64675;BME280;51090;51.512;11.332;2023-07-31T13:30:36;98736.47;;;24.86;nan
64675;BME280;51090;51.512;11.332;2023-07-31T13:33:02;98736.09;;;24.92;nan
64675;BME280;51090;51.512;11.332;2023-07-31T13:35:29;98738.63;;;25.03;nan
64675;BME280;51090;51.512;11.332;2023-07-31T13:37:57;98754.09;;;25.21;nan
64675;BME280;51090;51.512;11.332;2023-07-31T13:40:24;98747.97;;;25.43;nan